Terminal Aerodrome Forecast
Issued by NWS

Home | Current Version | Previous Version | Text Only | Print | Product List | Glossary On
Versions: 1 2 3 4 5 6 7 8 9 10 11 12 13 14 15 16
000
FTUS42 KRAH 191736
TAFINT
TAF
KINT 191736Z 1918/2018 04011KT P6SM OVC080
      TEMPO 1918/1921 6SM -RA BR OVC050
     FM201500 05010G20KT P6SM BKN200=

USA.gov is the U.S. government's official web portal to all federal, state and local government web resources and services.